Time;durP1;ratioP1;P1;durP2;ratioP2;P2;SDS_P1;SDS_P2;PMS_P1;PMS_P2;Temp;Humidity;BMP_temperature;BMP_pressure;BME280_temperature;BME280_humidity;BME280_pressure;Samples;Min_cycle;Max_cycle;Signal;HPM_P1;HPM_P2
2020/12/30 07:18:00;;;;;;;6.80;5.43;;;;;;;;;;10545126;28;20032;-88
2020/12/30 07:29:21;;;;;;;6.85;6.22;;;;;;;;;;10585935;28;20051;-88
2020/12/30 07:46:45;;;;;;;6.35;5.75;;;;;;;;;;10458570;28;20031;-88
2020/12/30 07:58:28;;;;;;;8.18;7.38;;;;;;;;;;10379602;28;20109;-88
2020/12/30 08:03:33;;;;;;;5.15;4.65;;;;;;;;;;10347191;28;20033;-87
2020/12/30 08:08:51;;;;;;;8.93;8.02;;;;;;;;;;10505498;28;20124;-87
2020/12/30 08:14:08;;;;;;;8.40;7.30;;;;;;;;;;10571260;28;20036;-86
2020/12/30 08:19:09;;;;;;;7.93;7.15;;;;;;;;;;10546594;28;20501;-86
2020/12/30 08:24:09;;;;;;;8.88;8.07;;;;;;;;;;10563270;28;20086;-86
2020/12/30 08:29:10;;;;;;;8.07;7.28;;;;;;;;;;10576346;28;20058;-86
2020/12/30 08:34:15;;;;;;;9.05;7.82;;;;;;;;;;10566236;28;20028;-88
2020/12/30 08:39:18;;;;;;;11.88;10.73;;;;;;;;;;10558645;28;20023;-87
2020/12/30 08:44:20;;;;;;;8.13;6.95;;;;;;;;;;10539034;28;20024;-88
2020/12/30 08:49:21;;;;;;;10.60;9.57;;;;;;;;;;10537496;28;20035;-86
2020/12/30 08:54:22;;;;;;;8.45;7.45;;;;;;;;;;10555536;28;20099;-87
2020/12/30 08:59:24;;;;;;;8.30;7.50;;;;;;;;;;10538103;28;20057;-87
2020/12/30 09:04:25;;;;;;;9.38;8.48;;;;;;;;;;10539366;28;20055;-87
2020/12/30 09:09:29;;;;;;;10.35;9.25;;;;;;;;;;10542206;28;20057;-87
2020/12/30 09:14:38;;;;;;;7.30;6.55;;;;;;;;;;10538588;28;20555;-86
2020/12/30 09:19:40;;;;;;;8.20;7.10;;;;;;;;;;10535620;28;20055;-88
2020/12/30 09:24:44;;;;;;;8.57;7.68;;;;;;;;;;10530764;28;20024;-89
2020/12/30 09:29:46;;;;;;;11.07;9.98;;;;;;;;;;10535491;28;20474;-87
2020/12/30 09:34:57;;;;;;;8.23;7.43;;;;;;;;;;10533076;28;20393;-88
2020/12/30 09:40:17;;;;;;;7.97;7.18;;;;;;;;;;10534035;28;20032;-87
2020/12/30 09:45:21;;;;;;;8.77;5.60;;;;;;;;;;10536951;28;20066;-86
2020/12/30 09:50:22;;;;;;;6.82;6.13;;;;;;;;;;10549821;28;20020;-88
2020/12/30 09:55:23;;;;;;;8.88;7.93;;;;;;;;;;10550756;28;20071;-89
2020/12/30 10:00:24;;;;;;;8.80;7.90;;;;;;;;;;10547611;28;20020;-87
2020/12/30 10:05:25;;;;;;;9.90;8.90;;;;;;;;;;10547195;28;20040;-88
2020/12/30 10:10:26;;;;;;;12.55;11.38;;;;;;;;;;10530394;28;20026;-87
2020/12/30 10:15:30;;;;;;;10.35;9.35;;;;;;;;;;10533026;28;20024;-88
2020/12/30 10:20:31;;;;;;;6.38;4.15;;;;;;;;;;10533024;28;20023;-89
2020/12/30 10:59:38;;;;;;;8.98;8.07;;;;;;;;;;10519478;28;20103;-87
2020/12/30 11:04:46;;;;;;;9.02;8.13;;;;;;;;;;10498144;28;20029;-89
2020/12/30 11:10:32;;;;;;;10.65;9.00;;;;;;;;;;10474031;28;20079;-89
2020/12/30 11:21:22;;;;;;;5.70;4.90;;;;;;;;;;10508136;28;20028;-85
2020/12/30 11:32:22;;;;;;;9.80;8.77;;;;;;;;;;10506790;28;20072;-87
2020/12/30 12:11:01;;;;;;;6.60;5.22;;;;;;;;;;10510908;28;20028;-86
2020/12/30 12:16:11;;;;;;;10.20;9.20;;;;;;;;;;10476528;28;20076;-90
2020/12/30 12:38:24;;;;;;;6.40;5.72;;;;;;;;;;10512655;28;20040;-91
2020/12/30 12:43:36;;;;;;;8.40;5.85;;;;;;;;;;10495078;28;20036;-91
2020/12/30 12:48:40;;;;;;;7.10;6.13;;;;;;;;;;10502089;28;20112;-90
2020/12/30 12:53:55;;;;;;;7.85;6.15;;;;;;;;;;10497426;28;20497;-90
2020/12/30 12:59:03;;;;;;;7.45;5.90;;;;;;;;;;10508607;28;20024;-89
2020/12/30 13:04:09;;;;;;;6.35;5.72;;;;;;;;;;10526310;28;20033;-90
2020/12/30 13:09:10;;;;;;;6.93;5.95;;;;;;;;;;10509505;28;20040;-90
2020/12/30 13:14:24;;;;;;;6.35;5.75;;;;;;;;;;10523550;28;20036;-87
2020/12/30 15:22:56;;;;;;;6.13;5.50;;;;;;;;;;10478508;28;20039;-87
2020/12/30 15:28:24;;;;;;;6.35;4.97;;;;;;;;;;10473193;28;20510;-86
2020/12/30 17:25:30;;;;;;;9.15;7.45;;;;;;;;;;10386200;28;20061;-88
2020/12/30 17:30:56;;;;;;;9.82;8.60;;;;;;;;;;10368116;28;20033;-87
2020/12/30 17:36:35;;;;;;;11.30;10.10;;;;;;;;;;10362599;28;20034;-87
2020/12/30 17:41:53;;;;;;;8.80;7.95;;;;;;;;;;10333614;28;20109;-87
2020/12/30 17:58:45;;;;;;;8.63;7.20;;;;;;;;;;10330542;28;20031;-87
2020/12/30 18:33:20;;;;;;;7.85;7.00;;;;;;;;;;10138495;29;20041;-87
2020/12/30 18:38:44;;;;;;;10.90;9.80;;;;;;;;;;10144945;29;20059;-88
2020/12/30 18:44:05;;;;;;;8.40;7.57;;;;;;;;;;10177092;29;20180;-87
2020/12/30 18:49:32;;;;;;;9.10;8.20;;;;;;;;;;10222796;28;20110;-89
2020/12/30 18:55:01;;;;;;;8.02;7.15;;;;;;;;;;10362298;28;20092;-87
2020/12/30 19:00:22;;;;;;;9.77;8.77;;;;;;;;;;10362059;28;20042;-88
2020/12/30 19:05:39;;;;;;;8.88;7.57;;;;;;;;;;10362509;28;20437;-87
2020/12/30 19:11:08;;;;;;;9.13;8.15;;;;;;;;;;10335708;28;20039;-87
2020/12/30 19:16:48;;;;;;;8.48;7.43;;;;;;;;;;10343374;28;20097;-87
2020/12/30 19:22:08;;;;;;;9.80;8.07;;;;;;;;;;10365638;28;20034;-87
2020/12/30 19:28:03;;;;;;;5.95;5.35;;;;;;;;;;10342115;28;20035;-90
2020/12/30 19:33:32;;;;;;;8.25;7.28;;;;;;;;;;10325688;28;20050;-88
2020/12/30 19:39:07;;;;;;;7.63;6.85;;;;;;;;;;10318400;28;20049;-89
2020/12/30 19:44:43;;;;;;;;;;;;;;;;;;;;;
